sensor_id;sensor_type;location;lat;lon;timestamp;pressure;altitude;pressure_sealevel;temperature;humidity
49583;BME280;36329;48.816;44.624;2023-05-03T00:01:56;101711;;;9.5;68.1
49583;BME280;36329;48.816;44.624;2023-05-03T00:04:58;101713;;;9.5;68.1
49583;BME280;36329;48.816;44.624;2023-05-03T00:08:00;101709;;;9.6;67.6
49583;BME280;36329;48.816;44.624;2023-05-03T00:11:02;101718;;;9.6;67.5
49583;BME280;36329;48.816;44.624;2023-05-03T00:14:04;101720;;;9.6;67.6
49583;BME280;36329;48.816;44.624;2023-05-03T00:17:05;101718;;;9.7;67.1
49583;BME280;36329;48.816;44.624;2023-05-03T00:20:08;101714;;;9.6;67.1
49583;BME280;36329;48.816;44.624;2023-05-03T00:23:10;101724;;;9.7;67
49583;BME280;36329;48.816;44.624;2023-05-03T00:26:12;101727;;;9.6;66.9
49583;BME280;36329;48.816;44.624;2023-05-03T00:29:14;101730;;;9.5;67.5
49583;BME280;36329;48.816;44.624;2023-05-03T00:32:16;101725;;;9.5;67.5
49583;BME280;36329;48.816;44.624;2023-05-03T00:35:18;101729;;;9.4;67.6
49583;BME280;36329;48.816;44.624;2023-05-03T00:38:20;101740;;;9.3;68.5
49583;BME280;36329;48.816;44.624;2023-05-03T00:41:22;101747;;;9.4;68.6
49583;BME280;36329;48.816;44.624;2023-05-03T00:44:24;101747;;;9.5;67.5
49583;BME280;36329;48.816;44.624;2023-05-03T00:47:27;101739;;;9.4;68.2
49583;BME280;36329;48.816;44.624;2023-05-03T00:50:29;101738;;;9.1;69.6
49583;BME280;36329;48.816;44.624;2023-05-03T00:53:32;101740;;;9.1;70
49583;BME280;36329;48.816;44.624;2023-05-03T00:56:34;101739;;;9.1;69.8
49583;BME280;36329;48.816;44.624;2023-05-03T00:59:36;101734;;;9;69.7
49583;BME280;36329;48.816;44.624;2023-05-03T01:02:38;101739;;;8.9;70.7
49583;BME280;36329;48.816;44.624;2023-05-03T01:05:46;101750;;;8.7;72
49583;BME280;36329;48.816;44.624;2023-05-03T01:08:57;101749;;;8.6;72
49583;BME280;36329;48.816;44.624;2023-05-03T01:12:09;101758;;;8.6;72.5
49583;BME280;36329;48.816;44.624;2023-05-03T01:15:32;101745;;;8.3;73.4
49583;BME280;36329;48.816;44.624;2023-05-03T01:18:39;101746;;;8.3;73.8
49583;BME280;36329;48.816;44.624;2023-05-03T01:21:46;101750;;;8.4;73.6
49583;BME280;36329;48.816;44.624;2023-05-03T01:25:00;101754;;;8.6;72.9
49583;BME280;36329;48.816;44.624;2023-05-03T01:28:07;101754;;;8.6;72.9
49583;BME280;36329;48.816;44.624;2023-05-03T01:31:09;101752;;;8.5;72.8
49583;BME280;36329;48.816;44.624;2023-05-03T01:34:19;101752;;;8.6;73
49583;BME280;36329;48.816;44.624;2023-05-03T01:37:24;101746;;;8.6;72.7
49583;BME280;36329;48.816;44.624;2023-05-03T01:40:27;101742;;;8.5;73.2
49583;BME280;36329;48.816;44.624;2023-05-03T01:43:30;101748;;;8.3;74.2
49583;BME280;36329;48.816;44.624;2023-05-03T01:46:33;101744;;;8;75.8
49583;BME280;36329;48.816;44.624;2023-05-03T01:49:35;101752;;;8.1;75.7
49583;BME280;36329;48.816;44.624;2023-05-03T01:52:38;101752;;;8.1;75.7
49583;BME280;36329;48.816;44.624;2023-05-03T01:55:40;101753;;;8;76.3
49583;BME280;36329;48.816;44.624;2023-05-03T01:58:42;101756;;;8;76.4
49583;BME280;36329;48.816;44.624;2023-05-03T02:01:44;101756;;;8.1;75.9
49583;BME280;36329;48.816;44.624;2023-05-03T02:04:46;101752;;;8.1;75.8
49583;BME280;36329;48.816;44.624;2023-05-03T02:07:48;101751;;;8.1;75.6
49583;BME280;36329;48.816;44.624;2023-05-03T02:10:50;101751;;;8;75.9
49583;BME280;36329;48.816;44.624;2023-05-03T02:13:52;101745;;;8.1;75.7
49583;BME280;36329;48.816;44.624;2023-05-03T02:16:54;101743;;;8.2;75.6
49583;BME280;36329;48.816;44.624;2023-05-03T02:19:56;101747;;;8.2;75.4
49583;BME280;36329;48.816;44.624;2023-05-03T02:22:58;101746;;;8.2;75.7
49583;BME280;36329;48.816;44.624;2023-05-03T02:26:00;101747;;;8.3;74.8
49583;BME280;36329;48.816;44.624;2023-05-03T02:29:02;101749;;;8.3;75
49583;BME280;36329;48.816;44.624;2023-05-03T02:32:04;101744;;;8.2;75.5
49583;BME280;36329;48.816;44.624;2023-05-03T02:35:06;101734;;;8.1;76
49583;BME280;36329;48.816;44.624;2023-05-03T02:38:09;101753;;;8.1;76.3
49583;BME280;36329;48.816;44.624;2023-05-03T02:41:11;101749;;;8.3;75.5
49583;BME280;36329;48.816;44.624;2023-05-03T02:44:13;101749;;;8.3;75.3
49583;BME280;36329;48.816;44.624;2023-05-03T02:47:15;101744;;;8.5;74.8
49583;BME280;36329;48.816;44.624;2023-05-03T02:50:17;101748;;;8.2;75.8
49583;BME280;36329;48.816;44.624;2023-05-03T02:53:19;101752;;;8.1;77
49583;BME280;36329;48.816;44.624;2023-05-03T02:56:21;101746;;;8.2;77
49583;BME280;36329;48.816;44.624;2023-05-03T02:59:23;101744;;;8.3;76.7
49583;BME280;36329;48.816;44.624;2023-05-03T03:02:25;101745;;;8.4;76.5
49583;BME280;36329;48.816;44.624;2023-05-03T03:05:27;101737;;;8.3;77
49583;BME280;36329;48.816;44.624;2023-05-03T03:08:29;101736;;;8.4;76.4
49583;BME280;36329;48.816;44.624;2023-05-03T03:11:31;101740;;;8.6;76.2
49583;BME280;36329;48.816;44.624;2023-05-03T03:14:33;101736;;;8.4;76.8
49583;BME280;36329;48.816;44.624;2023-05-03T03:17:35;101738;;;8.4;77.9
49583;BME280;36329;48.816;44.624;2023-05-03T03:20:37;101738;;;8.5;77.4
49583;BME280;36329;48.816;44.624;2023-05-03T03:23:39;101733;;;8.5;77.6
49583;BME280;36329;48.816;44.624;2023-05-03T03:26:41;101733;;;8.7;77.1
49583;BME280;36329;48.816;44.624;2023-05-03T03:29:43;101733;;;8.8;76.7
49583;BME280;36329;48.816;44.624;2023-05-03T03:32:45;101736;;;9;77.3
49583;BME280;36329;48.816;44.624;2023-05-03T03:35:47;101737;;;9.2;75.9
49583;BME280;36329;48.816;44.624;2023-05-03T03:38:49;101735;;;9.2;76
49583;BME280;36329;48.816;44.624;2023-05-03T03:41:51;101732;;;9.3;76.1
49583;BME280;36329;48.816;44.624;2023-05-03T03:44:53;101735;;;9.5;76.1
49583;BME280;36329;48.816;44.624;2023-05-03T03:47:55;101732;;;9.4;76.7
49583;BME280;36329;48.816;44.624;2023-05-03T03:50:57;101729;;;9.5;77.3
49583;BME280;36329;48.816;44.624;2023-05-03T03:53:59;101733;;;9.4;77.3
49583;BME280;36329;48.816;44.624;2023-05-03T03:57:01;101740;;;9.8;76.3
49583;BME280;36329;48.816;44.624;2023-05-03T04:00:03;101731;;;9.9;75.1
49583;BME280;36329;48.816;44.624;2023-05-03T04:03:06;101736;;;10;74.8
49583;BME280;36329;48.816;44.624;2023-05-03T04:06:08;101738;;;10.1;74.9
49583;BME280;36329;48.816;44.624;2023-05-03T04:09:10;101732;;;10.3;74.5
49583;BME280;36329;48.816;44.624;2023-05-03T04:12:12;101734;;;10.2;74.2
49583;BME280;36329;48.816;44.624;2023-05-03T04:15:14;101723;;;10.3;74.1
49583;BME280;36329;48.816;44.624;2023-05-03T04:18:16;101724;;;10.5;73.9
49583;BME280;36329;48.816;44.624;2023-05-03T04:21:18;101722;;;10.6;73.7
49583;BME280;36329;48.816;44.624;2023-05-03T04:24:20;101709;;;10.6;73.6
49583;BME280;36329;48.816;44.624;2023-05-03T04:27:22;101719;;;10.7;74.2
49583;BME280;36329;48.816;44.624;2023-05-03T04:30:23;101711;;;10.7;73.4
49583;BME280;36329;48.816;44.624;2023-05-03T04:33:25;101717;;;10.8;72.5
49583;BME280;36329;48.816;44.624;2023-05-03T04:36:27;101728;;;10.8;72.9
49583;BME280;36329;48.816;44.624;2023-05-03T04:39:29;101723;;;10.9;72.3
49583;BME280;36329;48.816;44.624;2023-05-03T04:42:32;101735;;;11.2;71.3
49583;BME280;36329;48.816;44.624;2023-05-03T04:45:34;101743;;;11.5;71.3
49583;BME280;36329;48.816;44.624;2023-05-03T04:48:35;101753;;;11.8;69.4
49583;BME280;36329;48.816;44.624;2023-05-03T04:51:37;101757;;;11.8;69.5
49583;BME280;36329;48.816;44.624;2023-05-03T04:54:39;101769;;;11.9;69.6
49583;BME280;36329;48.816;44.624;2023-05-03T04:57:41;101774;;;12.3;68.6
49583;BME280;36329;48.816;44.624;2023-05-03T05:00:44;101779;;;12.4;67.6
49583;BME280;36329;48.816;44.624;2023-05-03T05:03:45;101782;;;12.6;67.5
49583;BME280;36329;48.816;44.624;2023-05-03T05:06:49;101771;;;12.6;67.1
49583;BME280;36329;48.816;44.624;2023-05-03T05:09:51;101772;;;12.9;66.1
49583;BME280;36329;48.816;44.624;2023-05-03T05:12:53;101769;;;12.7;66
49583;BME280;36329;48.816;44.624;2023-05-03T05:15:55;101769;;;12.6;65.2
49583;BME280;36329;48.816;44.624;2023-05-03T05:18:57;101772;;;12.7;64.7
49583;BME280;36329;48.816;44.624;2023-05-03T05:22:00;101768;;;12.7;64.2
49583;BME280;36329;48.816;44.624;2023-05-03T05:25:02;101772;;;12.7;65.6
49583;BME280;36329;48.816;44.624;2023-05-03T05:28:05;101772;;;13;64.3
49583;BME280;36329;48.816;44.624;2023-05-03T05:31:07;101765;;;13.1;63.3
49583;BME280;36329;48.816;44.624;2023-05-03T05:34:09;101770;;;13.6;61.7
49583;BME280;36329;48.816;44.624;2023-05-03T05:37:11;101769;;;13.5;62.5
49583;BME280;36329;48.816;44.624;2023-05-03T05:40:13;101761;;;13.3;62
49583;BME280;36329;48.816;44.624;2023-05-03T05:43:16;101761;;;13.4;62.2
49583;BME280;36329;48.816;44.624;2023-05-03T05:46:18;101764;;;13.7;61.4
49583;BME280;36329;48.816;44.624;2023-05-03T05:49:20;101763;;;13.9;60.7
49583;BME280;36329;48.816;44.624;2023-05-03T05:52:22;101770;;;13.9;61
49583;BME280;36329;48.816;44.624;2023-05-03T05:55:24;101771;;;13.8;60.6
49583;BME280;36329;48.816;44.624;2023-05-03T05:58:26;101774;;;13.9;61
49583;BME280;36329;48.816;44.624;2023-05-03T06:01:28;101772;;;14.2;60
49583;BME280;36329;48.816;44.624;2023-05-03T06:04:30;101782;;;13.8;60.5
49583;BME280;36329;48.816;44.624;2023-05-03T06:07:32;101779;;;13.5;62
49583;BME280;36329;48.816;44.624;2023-05-03T06:10:34;101780;;;13.9;60.4
49583;BME280;36329;48.816;44.624;2023-05-03T06:13:36;101781;;;13.8;60.4
49583;BME280;36329;48.816;44.624;2023-05-03T06:16:37;101773;;;13.9;60.9
49583;BME280;36329;48.816;44.624;2023-05-03T06:19:39;101781;;;14.3;60
49583;BME280;36329;48.816;44.624;2023-05-03T06:22:41;101786;;;14.1;59.2
49583;BME280;36329;48.816;44.624;2023-05-03T06:25:45;101793;;;14.1;59.3
49583;BME280;36329;48.816;44.624;2023-05-03T06:28:47;101783;;;14.5;58.1
49583;BME280;36329;48.816;44.624;2023-05-03T06:31:49;101773;;;14.8;56.9
49583;BME280;36329;48.816;44.624;2023-05-03T06:34:51;101772;;;15.3;56.4
49583;BME280;36329;48.816;44.624;2023-05-03T06:37:53;101770;;;15.7;54.2
49583;BME280;36329;48.816;44.624;2023-05-03T06:40:55;101768;;;15.8;54
49583;BME280;36329;48.816;44.624;2023-05-03T06:43:57;101768;;;16.2;53.1
49583;BME280;36329;48.816;44.624;2023-05-03T06:47:00;101774;;;16.6;51.9
49583;BME280;36329;48.816;44.624;2023-05-03T06:50:01;101773;;;16.8;51.2
49583;BME280;36329;48.816;44.624;2023-05-03T06:53:05;101775;;;17.2;50.6
49583;BME280;36329;48.816;44.624;2023-05-03T06:56:07;101766;;;16.9;50.5
49583;BME280;36329;48.816;44.624;2023-05-03T06:59:09;101764;;;16.7;51
49583;BME280;36329;48.816;44.624;2023-05-03T07:02:11;101767;;;16.8;51.3
49583;BME280;36329;48.816;44.624;2023-05-03T07:05:13;101765;;;16.5;51.9
49583;BME280;36329;48.816;44.624;2023-05-03T07:08:15;101759;;;16.5;51.5
49583;BME280;36329;48.816;44.624;2023-05-03T07:11:19;101765;;;17.1;50.8
49583;BME280;36329;48.816;44.624;2023-05-03T07:14:21;101756;;;16.9;49.7
49583;BME280;36329;48.816;44.624;2023-05-03T07:17:23;101753;;;17.1;49.7
49583;BME280;36329;48.816;44.624;2023-05-03T07:20:25;101766;;;16.9;49.3
49583;BME280;36329;48.816;44.624;2023-05-03T07:23:27;101769;;;16.8;49.6
49583;BME280;36329;48.816;44.624;2023-05-03T07:26:29;101763;;;16.8;49.6
49583;BME280;36329;48.816;44.624;2023-05-03T07:29:31;101768;;;16.9;50.7
49583;BME280;36329;48.816;44.624;2023-05-03T07:32:33;101765;;;16.6;50.5
49583;BME280;36329;48.816;44.624;2023-05-03T07:35:35;101769;;;16.5;51.1
49583;BME280;36329;48.816;44.624;2023-05-03T07:38:37;101779;;;16.4;50.9
49583;BME280;36329;48.816;44.624;2023-05-03T07:41:39;101765;;;16.4;51.8
49583;BME280;36329;48.816;44.624;2023-05-03T07:44:41;101765;;;17;50.8
49583;BME280;36329;48.816;44.624;2023-05-03T07:47:43;101773;;;17;50.1
49583;BME280;36329;48.816;44.624;2023-05-03T07:50:45;101769;;;17;49.9
49583;BME280;36329;48.816;44.624;2023-05-03T07:53:47;101772;;;17.5;48.6
49583;BME280;36329;48.816;44.624;2023-05-03T07:56:49;101765;;;17.5;48.7
49583;BME280;36329;48.816;44.624;2023-05-03T07:59:51;101761;;;18.4;45.9
49583;BME280;36329;48.816;44.624;2023-05-03T08:02:53;101760;;;19;44.9
49583;BME280;36329;48.816;44.624;2023-05-03T08:05:55;101759;;;18.6;44.2
49583;BME280;36329;48.816;44.624;2023-05-03T08:08:57;101760;;;18.5;45.6
49583;BME280;36329;48.816;44.624;2023-05-03T08:11:59;101760;;;18.8;45.7
49583;BME280;36329;48.816;44.624;2023-05-03T08:15:02;101753;;;19.1;44.5
49583;BME280;36329;48.816;44.624;2023-05-03T08:18:05;101748;;;19.4;43.3
49583;BME280;36329;48.816;44.624;2023-05-03T08:21:07;101735;;;19.4;43.7
49583;BME280;36329;48.816;44.624;2023-05-03T08:24:09;101723;;;19;45.6
49583;BME280;36329;48.816;44.624;2023-05-03T08:27:11;101721;;;19.1;45.6
49583;BME280;36329;48.816;44.624;2023-05-03T08:30:13;101718;;;19.8;44
49583;BME280;36329;48.816;44.624;2023-05-03T08:33:15;101714;;;20.1;44
49583;BME280;36329;48.816;44.624;2023-05-03T08:36:17;101709;;;20.2;42.4
49583;BME280;36329;48.816;44.624;2023-05-03T08:39:19;101709;;;20.3;42.5
49583;BME280;36329;48.816;44.624;2023-05-03T08:42:21;101704;;;19.9;42.7
49583;BME280;36329;48.816;44.624;2023-05-03T08:45:24;101697;;;20.5;42.4
49583;BME280;36329;48.816;44.624;2023-05-03T08:48:26;101699;;;20.9;41.5
49583;BME280;36329;48.816;44.624;2023-05-03T08:51:30;101701;;;20.7;42.3
49583;BME280;36329;48.816;44.624;2023-05-03T08:54:35;101692;;;20.8;41.7
49583;BME280;36329;48.816;44.624;2023-05-03T08:57:38;101691;;;20.9;41.9
49583;BME280;36329;48.816;44.624;2023-05-03T09:00:40;101690;;;21;41.2
49583;BME280;36329;48.816;44.624;2023-05-03T09:03:47;101689;;;21.5;40.1
49583;BME280;36329;48.816;44.624;2023-05-03T09:07:06;101699;;;21.7;39.6
49583;BME280;36329;48.816;44.624;2023-05-03T09:10:21;101698;;;21.4;40.8
49583;BME280;36329;48.816;44.624;2023-05-03T09:13:29;101702;;;21.2;40.1
49583;BME280;36329;48.816;44.624;2023-05-03T09:16:32;101688;;;21;41.5
49583;BME280;36329;48.816;44.624;2023-05-03T09:19:52;101694;;;20.8;41.1
49583;BME280;36329;48.816;44.624;2023-05-03T09:22:54;101684;;;21.5;40.3
49583;BME280;36329;48.816;44.624;2023-05-03T09:25:57;101689;;;21.4;38.7
49583;BME280;36329;48.816;44.624;2023-05-03T09:29:00;101678;;;21.4;39.3
49583;BME280;36329;48.816;44.624;2023-05-03T09:32:03;101683;;;21.1;40.2
49583;BME280;36329;48.816;44.624;2023-05-03T09:35:09;101690;;;21.3;40.8
49583;BME280;36329;48.816;44.624;2023-05-03T09:38:24;101704;;;21.2;40.8
49583;BME280;36329;48.816;44.624;2023-05-03T09:41:28;101706;;;20.8;41.9
49583;BME280;36329;48.816;44.624;2023-05-03T09:44:46;101717;;;20.4;41.5
49583;BME280;36329;48.816;44.624;2023-05-03T09:47:49;101708;;;20.4;40.7
49583;BME280;36329;48.816;44.624;2023-05-03T09:50:51;101709;;;20.8;40.8
49583;BME280;36329;48.816;44.624;2023-05-03T09:53:55;101699;;;20.9;40.3
49583;BME280;36329;48.816;44.624;2023-05-03T09:56:57;101690;;;21.1;39.6
49583;BME280;36329;48.816;44.624;2023-05-03T09:59:59;101702;;;21.5;38.9
49583;BME280;36329;48.816;44.624;2023-05-03T10:03:04;101698;;;21.3;39.4
49583;BME280;36329;48.816;44.624;2023-05-03T10:06:21;101703;;;21.4;39.2
49583;BME280;36329;48.816;44.624;2023-05-03T10:09:27;101694;;;21.1;40.4
49583;BME280;36329;48.816;44.624;2023-05-03T10:12:32;101683;;;21.3;39
49583;BME280;36329;48.816;44.624;2023-05-03T10:15:35;101690;;;21.3;38.9
49583;BME280;36329;48.816;44.624;2023-05-03T10:18:44;101698;;;21.6;37.6
49583;BME280;36329;48.816;44.624;2023-05-03T10:21:54;101702;;;21.5;37.4
49583;BME280;36329;48.816;44.624;2023-05-03T10:25:08;101702;;;21.4;37.5
49583;BME280;36329;48.816;44.624;2023-05-03T10:28:11;101693;;;21.6;38
49583;BME280;36329;48.816;44.624;2023-05-03T10:34:44;101697;;;21.9;38.2
49583;BME280;36329;48.816;44.624;2023-05-03T10:37:47;101686;;;22.2;36.8
49583;BME280;36329;48.816;44.624;2023-05-03T10:40:50;101691;;;21.9;37.2
49583;BME280;36329;48.816;44.624;2023-05-03T10:43:53;101686;;;21.7;37.7
49583;BME280;36329;48.816;44.624;2023-05-03T10:46:55;101684;;;22.2;36.8
49583;BME280;36329;48.816;44.624;2023-05-03T10:53:38;101681;;;22;36.9
49583;BME280;36329;48.816;44.624;2023-05-03T10:56:47;101690;;;22;36.8
49583;BME280;36329;48.816;44.624;2023-05-03T10:59:49;101677;;;21.9;36.1
49583;BME280;36329;48.816;44.624;2023-05-03T11:03:03;101682;;;21.4;37.2
49583;BME280;36329;48.816;44.624;2023-05-03T11:06:27;101668;;;21.2;38.2
49583;BME280;36329;48.816;44.624;2023-05-03T11:09:32;101662;;;21.1;38
49583;BME280;36329;48.816;44.624;2023-05-03T11:12:34;101665;;;20.8;37.7
49583;BME280;36329;48.816;44.624;2023-05-03T11:15:36;101663;;;20.8;37.3
49583;BME280;36329;48.816;44.624;2023-05-03T11:18:39;101655;;;20.6;38.1
49583;BME280;36329;48.816;44.624;2023-05-03T11:21:42;101661;;;20.7;39
49583;BME280;36329;48.816;44.624;2023-05-03T11:24:44;101648;;;20.6;38.9
49583;BME280;36329;48.816;44.624;2023-05-03T11:27:46;101647;;;20.3;39.3
49583;BME280;36329;48.816;44.624;2023-05-03T11:30:48;101646;;;20.3;39.3
49583;BME280;36329;48.816;44.624;2023-05-03T11:33:51;101641;;;20.3;39.6
49583;BME280;36329;48.816;44.624;2023-05-03T11:36:53;101635;;;20.2;39.5
49583;BME280;36329;48.816;44.624;2023-05-03T11:39:54;101638;;;20;40
49583;BME280;36329;48.816;44.624;2023-05-03T11:42:58;101635;;;19.9;40
49583;BME280;36329;48.816;44.624;2023-05-03T11:46:00;101633;;;19.8;40.7
49583;BME280;36329;48.816;44.624;2023-05-03T11:49:02;101631;;;19.7;41.2
49583;BME280;36329;48.816;44.624;2023-05-03T11:52:04;101628;;;19.5;41.9
49583;BME280;36329;48.816;44.624;2023-05-03T11:55:07;101622;;;19.6;41.2
49583;BME280;36329;48.816;44.624;2023-05-03T11:58:12;101619;;;19.6;41.3
49583;BME280;36329;48.816;44.624;2023-05-03T12:01:14;101618;;;19.8;41.1
49583;BME280;36329;48.816;44.624;2023-05-03T12:04:16;101611;;;19.9;40.7
49583;BME280;36329;48.816;44.624;2023-05-03T12:07:18;101610;;;20;40.3
49583;BME280;36329;48.816;44.624;2023-05-03T12:10:21;101607;;;19.9;41.2
49583;BME280;36329;48.816;44.624;2023-05-03T12:13:27;101601;;;19.8;41.5
49583;BME280;36329;48.816;44.624;2023-05-03T12:16:45;101599;;;19.9;41.8
49583;BME280;36329;48.816;44.624;2023-05-03T12:19:48;101601;;;20;41.1
49583;BME280;36329;48.816;44.624;2023-05-03T12:22:52;101593;;;19.9;41.5
49583;BME280;36329;48.816;44.624;2023-05-03T12:25:54;101588;;;19.9;40.8
49583;BME280;36329;48.816;44.624;2023-05-03T12:28:56;101590;;;19.8;41
49583;BME280;36329;48.816;44.624;2023-05-03T12:31:59;101583;;;19.9;40.8
49583;BME280;36329;48.816;44.624;2023-05-03T12:35:01;101580;;;19.9;40.8
49583;BME280;36329;48.816;44.624;2023-05-03T12:38:03;101580;;;19.8;41.6
49583;BME280;36329;48.816;44.624;2023-05-03T12:41:05;101574;;;19.9;42
49583;BME280;36329;48.816;44.624;2023-05-03T12:44:07;101568;;;19.8;41.8
49583;BME280;36329;48.816;44.624;2023-05-03T12:47:09;101565;;;19.7;42.4
49583;BME280;36329;48.816;44.624;2023-05-03T12:50:11;101565;;;19.8;42.6
49583;BME280;36329;48.816;44.624;2023-05-03T12:53:13;101560;;;19.8;42.4
49583;BME280;36329;48.816;44.624;2023-05-03T12:56:15;101555;;;19.6;42.3
49583;BME280;36329;48.816;44.624;2023-05-03T12:59:17;101552;;;19.6;42.9
49583;BME280;36329;48.816;44.624;2023-05-03T13:02:20;101546;;;19.5;42.3
49583;BME280;36329;48.816;44.624;2023-05-03T13:05:22;101544;;;19.4;41.6
49583;BME280;36329;48.816;44.624;2023-05-03T13:08:24;101544;;;19.5;42
49583;BME280;36329;48.816;44.624;2023-05-03T13:11:26;101542;;;19.5;42
49583;BME280;36329;48.816;44.624;2023-05-03T13:14:28;101548;;;19.5;42.3
49583;BME280;36329;48.816;44.624;2023-05-03T13:17:30;101548;;;19.5;42.8
49583;BME280;36329;48.816;44.624;2023-05-03T13:20:34;101549;;;19.5;42.8
49583;BME280;36329;48.816;44.624;2023-05-03T13:23:36;101545;;;19.5;42.1
49583;BME280;36329;48.816;44.624;2023-05-03T13:26:39;101537;;;19.5;42.1
49583;BME280;36329;48.816;44.624;2023-05-03T13:29:41;101533;;;19.6;41.9
49583;BME280;36329;48.816;44.624;2023-05-03T13:32:43;101532;;;19.7;41.3
49583;BME280;36329;48.816;44.624;2023-05-03T13:35:45;101539;;;19.8;41
49583;BME280;36329;48.816;44.624;2023-05-03T13:38:47;101533;;;19.9;41.4
49583;BME280;36329;48.816;44.624;2023-05-03T13:41:49;101535;;;19.7;40.7
49583;BME280;36329;48.816;44.624;2023-05-03T13:44:51;101532;;;19.6;40.4
49583;BME280;36329;48.816;44.624;2023-05-03T13:47:53;101537;;;19.6;40.2
49583;BME280;36329;48.816;44.624;2023-05-03T13:50:55;101541;;;19.6;40.4
49583;BME280;36329;48.816;44.624;2023-05-03T13:53:58;101534;;;19.5;40.8
49583;BME280;36329;48.816;44.624;2023-05-03T13:57:00;101534;;;19.6;40.7
49583;BME280;36329;48.816;44.624;2023-05-03T14:00:03;101536;;;19.7;40.7
49583;BME280;36329;48.816;44.624;2023-05-03T14:03:05;101532;;;19.7;40.9
49583;BME280;36329;48.816;44.624;2023-05-03T14:06:08;101533;;;19.7;41
49583;BME280;36329;48.816;44.624;2023-05-03T14:09:10;101537;;;19.7;40.9
49583;BME280;36329;48.816;44.624;2023-05-03T14:12:12;101531;;;19.8;40.9
49583;BME280;36329;48.816;44.624;2023-05-03T14:15:14;101537;;;19.7;40.2
49583;BME280;36329;48.816;44.624;2023-05-03T14:18:16;101533;;;19.7;40.1
49583;BME280;36329;48.816;44.624;2023-05-03T14:21:18;101527;;;19.6;40.5
49583;BME280;36329;48.816;44.624;2023-05-03T14:24:20;101525;;;19.7;40.7
49583;BME280;36329;48.816;44.624;2023-05-03T14:27:22;101530;;;19.8;40.9
49583;BME280;36329;48.816;44.624;2023-05-03T14:30:24;101531;;;19.7;40.9
49583;BME280;36329;48.816;44.624;2023-05-03T14:33:26;101527;;;19.7;41
49583;BME280;36329;48.816;44.624;2023-05-03T14:36:28;101530;;;19.6;40.4
49583;BME280;36329;48.816;44.624;2023-05-03T14:39:30;101521;;;19.5;40.7
49583;BME280;36329;48.816;44.624;2023-05-03T14:42:32;101531;;;19.5;40.6
49583;BME280;36329;48.816;44.624;2023-05-03T14:45:35;101522;;;19.5;40.3
49583;BME280;36329;48.816;44.624;2023-05-03T14:48:36;101524;;;19.5;40.3
49583;BME280;36329;48.816;44.624;2023-05-03T14:51:39;101521;;;19.5;40.9
49583;BME280;36329;48.816;44.624;2023-05-03T14:54:41;101517;;;19.5;40.5
49583;BME280;36329;48.816;44.624;2023-05-03T14:57:43;101518;;;19.5;40.6
49583;BME280;36329;48.816;44.624;2023-05-03T15:00:45;101512;;;19.5;40.4
49583;BME280;36329;48.816;44.624;2023-05-03T15:03:48;101521;;;19.5;40.9
49583;BME280;36329;48.816;44.624;2023-05-03T15:06:50;101521;;;19.4;40.8
49583;BME280;36329;48.816;44.624;2023-05-03T15:09:52;101521;;;19.4;40.9
49583;BME280;36329;48.816;44.624;2023-05-03T15:12:54;101522;;;19.4;40.8
49583;BME280;36329;48.816;44.624;2023-05-03T15:15:56;101515;;;19.5;40.5
49583;BME280;36329;48.816;44.624;2023-05-03T15:18:58;101522;;;19.4;40.7
49583;BME280;36329;48.816;44.624;2023-05-03T15:22:00;101516;;;19.4;40.7
49583;BME280;36329;48.816;44.624;2023-05-03T15:25:03;101520;;;19.4;41
49583;BME280;36329;48.816;44.624;2023-05-03T15:28:06;101514;;;19.3;41.7
49583;BME280;36329;48.816;44.624;2023-05-03T15:31:07;101520;;;19.3;41.7
49583;BME280;36329;48.816;44.624;2023-05-03T15:34:09;101517;;;19.1;42.2
49583;BME280;36329;48.816;44.624;2023-05-03T15:37:11;101519;;;19.2;42.1
49583;BME280;36329;48.816;44.624;2023-05-03T15:40:14;101525;;;19.2;42
49583;BME280;36329;48.816;44.624;2023-05-03T15:43:16;101521;;;19.2;42.3
49583;BME280;36329;48.816;44.624;2023-05-03T15:46:18;101523;;;19.2;42.5
49583;BME280;36329;48.816;44.624;2023-05-03T15:49:20;101520;;;19.1;43
49583;BME280;36329;48.816;44.624;2023-05-03T15:52:21;101521;;;19.1;42.8
49583;BME280;36329;48.816;44.624;2023-05-03T15:55:24;101525;;;19;42.8
49583;BME280;36329;48.816;44.624;2023-05-03T15:58:26;101526;;;19;43.2
49583;BME280;36329;48.816;44.624;2023-05-03T16:01:28;101530;;;18.8;43.4
49583;BME280;36329;48.816;44.624;2023-05-03T16:04:30;101525;;;18.8;44
49583;BME280;36329;48.816;44.624;2023-05-03T16:07:32;101534;;;18.8;43.8
49583;BME280;36329;48.816;44.624;2023-05-03T16:10:34;101533;;;18.7;44.3
49583;BME280;36329;48.816;44.624;2023-05-03T16:13:36;101535;;;18.6;44.6
49583;BME280;36329;48.816;44.624;2023-05-03T16:16:39;101538;;;18.6;44.7
49583;BME280;36329;48.816;44.624;2023-05-03T16:19:41;101546;;;18.6;44.9
49583;BME280;36329;48.816;44.624;2023-05-03T16:22:43;101548;;;18.5;45.4
49583;BME280;36329;48.816;44.624;2023-05-03T16:25:45;101543;;;18.5;45.5
49583;BME280;36329;48.816;44.624;2023-05-03T16:28:47;101549;;;18.4;45.9
49583;BME280;36329;48.816;44.624;2023-05-03T16:31:49;101555;;;18.4;45.8
49583;BME280;36329;48.816;44.624;2023-05-03T16:34:51;101556;;;18.4;46
49583;BME280;36329;48.816;44.624;2023-05-03T16:37:53;101556;;;18.3;46.2
49583;BME280;36329;48.816;44.624;2023-05-03T16:40:57;101557;;;18.3;46.5
49583;BME280;36329;48.816;44.624;2023-05-03T16:43:59;101556;;;18.3;46.7
49583;BME280;36329;48.816;44.624;2023-05-03T16:47:01;101558;;;18.3;47
49583;BME280;36329;48.816;44.624;2023-05-03T16:50:04;101559;;;18.3;46.9
49583;BME280;36329;48.816;44.624;2023-05-03T16:53:06;101560;;;18.1;47.5
49583;BME280;36329;48.816;44.624;2023-05-03T16:56:08;101559;;;18.1;47.7
49583;BME280;36329;48.816;44.624;2023-05-03T16:59:10;101562;;;18;48
49583;BME280;36329;48.816;44.624;2023-05-03T17:02:12;101571;;;17.9;48.4
49583;BME280;36329;48.816;44.624;2023-05-03T17:05:14;101572;;;17.9;49